Time;durP1;ratioP1;P1;durP2;ratioP2;P2;SDS_P1;SDS_P2;PMS_P1;PMS_P2;Temp;Humidity;BMP_temperature;BMP_pressure;BME280_temperature;BME280_humidity;BME280_pressure;Samples;Min_cycle;Max_cycle;Signal;HPM_P1;HPM_P2
2021/12/13 00:03:07;;;;;;;27.50;10.30;;;10.30;99.90;;;;;;10412769;28;84810;-45
2021/12/13 00:08:12;;;;;;;29.20;12.40;;;10.30;99.90;;;;;;10411208;28;85250;-43
2021/12/13 00:13:18;;;;;;;31.85;11.93;;;10.30;99.90;;;;;;10412947;28;85277;-46
2021/12/13 00:18:28;;;;;;;34.17;12.55;;;10.40;99.90;;;;;;10412529;28;84354;-45
2021/12/13 00:23:43;;;;;;;33.85;12.77;;;10.30;99.90;;;;;;10412901;28;84970;-44
2021/12/13 00:28:44;;;;;;;32.10;13.02;;;10.30;99.90;;;;;;10412719;28;84028;-42
2021/12/13 00:34:43;;;;;;;41.63;13.45;;;10.40;99.90;;;;;;10413200;28;84015;-45
2021/12/13 00:39:58;;;;;;;32.30;13.13;;;10.40;99.90;;;;;;10359857;28;84213;-46
2021/12/13 00:45:05;;;;;;;28.40;11.23;;;10.40;99.90;;;;;;10412134;28;84919;-45
2021/12/13 00:50:14;;;;;;;33.45;11.93;;;10.40;99.90;;;;;;10410804;28;83989;-43
2021/12/13 00:55:25;;;;;;;30.63;12.05;;;10.30;99.90;;;;;;10411127;28;85082;-43
2021/12/13 01:00:32;;;;;;;33.83;12.75;;;10.30;99.90;;;;;;10410921;28;86202;-45
2021/12/13 01:05:46;;;;;;;31.98;12.55;;;10.30;99.90;;;;;;10409767;28;84779;-42
2021/12/13 01:10:53;;;;;;;30.25;12.35;;;10.30;99.90;;;;;;10410801;28;84949;-46
2021/12/13 01:16:21;;;;;;;29.85;12.05;;;10.30;99.90;;;;;;10409211;28;86046;-43
2021/12/13 01:21:42;;;;;;;29.08;12.00;;;10.30;99.90;;;;;;10411293;28;84928;-44
2021/12/13 01:26:48;;;;;;;30.17;11.85;;;10.40;99.90;;;;;;10410409;28;84892;-44
2021/12/13 01:31:51;;;;;;;29.77;11.50;;;10.40;99.90;;;;;;10410546;28;84928;-45
2021/12/13 01:37:04;;;;;;;27.77;10.32;;;10.40;99.90;;;;;;10409926;28;84106;-46
2021/12/13 01:42:09;;;;;;;23.73;10.80;;;10.40;99.90;;;;;;10409955;28;84004;-46
2021/12/13 01:47:14;;;;;;;28.75;11.75;;;10.40;99.90;;;;;;10409158;28;85294;-44
2021/12/13 01:52:20;;;;;;;27.85;11.23;;;10.40;99.90;;;;;;10409446;28;85470;-44
2021/12/13 01:57:24;;;;;;;24.10;10.60;;;10.40;99.90;;;;;;10408468;28;84924;-45
2021/12/13 02:02:41;;;;;;;25.88;11.30;;;10.40;99.90;;;;;;10409250;28;84081;-46
2021/12/13 02:08:08;;;;;;;27.02;11.48;;;10.50;99.90;;;;;;10432168;22;85359;-46
2021/12/13 02:13:14;;;;;;;28.63;11.40;;;10.40;99.90;;;;;;10411087;28;84988;-44
2021/12/13 02:18:19;;;;;;;22.92;11.05;;;10.50;99.90;;;;;;10441812;28;85107;-48
2021/12/13 02:23:21;;;;;;;23.80;11.10;;;10.50;99.90;;;;;;10452464;28;84023;-44
2021/12/13 02:28:26;;;;;;;25.30;10.90;;;10.40;99.90;;;;;;10451918;27;84012;-48
2021/12/13 02:33:32;;;;;;;23.80;10.32;;;10.40;99.90;;;;;;10452479;27;84842;-47
2021/12/13 02:38:36;;;;;;;22.00;9.68;;;10.50;99.90;;;;;;10451841;27;84113;-47
2021/12/13 02:43:40;;;;;;;19.90;9.27;;;10.40;99.90;;;;;;10450516;28;84754;-49
2021/12/13 02:48:55;;;;;;;20.75;9.70;;;10.50;99.90;;;;;;10451274;27;84028;-48
2021/12/13 02:54:21;;;;;;;22.05;10.60;;;10.40;99.90;;;;;;10451827;27;84754;-48
2021/12/13 02:59:25;;;;;;;20.35;9.57;;;10.40;99.90;;;;;;10450802;27;84886;-47
2021/12/13 03:04:28;;;;;;;20.17;9.73;;;10.40;99.90;;;;;;10451442;27;84842;-46
2021/12/13 03:09:31;;;;;;;20.90;10.00;;;10.40;99.90;;;;;;10450663;27;84930;-47
2021/12/13 03:14:41;;;;;;;23.42;10.45;;;10.40;99.90;;;;;;10456057;27;84923;-44
2021/12/13 03:19:42;;;;;;;18.52;9.15;;;10.40;99.90;;;;;;10458000;28;84104;-47
2021/12/13 03:24:49;;;;;;;20.33;9.27;;;10.40;99.90;;;;;;10458589;28;84296;-44
2021/12/13 03:30:09;;;;;;;25.33;10.63;;;10.40;99.90;;;;;;10456512;28;84014;-47
2021/12/13 03:35:10;;;;;;;21.02;9.60;;;10.40;99.90;;;;;;10450861;28;84764;-48
2021/12/13 03:40:20;;;;;;;23.20;9.73;;;10.50;99.90;;;;;;10457629;28;84060;-46
2021/12/13 03:45:38;;;;;;;22.80;10.73;;;10.40;99.90;;;;;;10456898;28;84868;-51
2021/12/13 03:50:43;;;;;;;22.48;10.93;;;10.40;99.90;;;;;;10458294;27;84116;-46
2021/12/13 03:55:48;;;;;;;24.05;11.25;;;10.40;99.90;;;;;;10456761;27;84033;-45
2021/12/13 04:01:18;;;;;;;22.48;10.55;;;10.50;99.90;;;;;;10457580;27;84907;-48
2021/12/13 04:06:20;;;;;;;23.85;10.73;;;10.50;99.90;;;;;;10450990;28;85046;-46
2021/12/13 04:11:24;;;;;;;22.20;11.65;;;10.50;99.90;;;;;;10457177;28;84031;-46
2021/12/13 04:16:34;;;;;;;28.55;12.45;;;10.50;99.90;;;;;;10456260;27;84120;-47
2021/12/13 04:21:43;;;;;;;28.73;12.27;;;10.50;99.90;;;;;;10456896;27;84116;-45
2021/12/13 04:26:52;;;;;;;27.50;12.57;;;10.50;99.90;;;;;;10456089;27;84957;-46
2021/12/13 04:31:55;;;;;;;27.60;12.43;;;10.40;99.90;;;;;;10454850;28;86821;-44
2021/12/13 04:36:57;;;;;;;28.83;13.30;;;10.40;99.90;;;;;;10454910;28;84986;-50
2021/12/13 04:42:05;;;;;;;26.25;12.45;;;10.40;99.90;;;;;;10456157;27;84910;-47
2021/12/13 04:47:12;;;;;;;28.02;12.38;;;10.40;99.90;;;;;;10455113;27;84894;-46
2021/12/13 04:52:19;;;;;;;27.98;12.73;;;10.40;99.90;;;;;;10455536;28;84146;-44
2021/12/13 04:57:21;;;;;;;25.98;13.27;;;10.40;99.90;;;;;;10454601;27;84794;-48
2021/12/13 05:02:23;;;;;;;27.58;13.48;;;10.40;99.90;;;;;;10455593;27;84734;-47
2021/12/13 05:07:25;;;;;;;32.65;13.93;;;10.40;99.90;;;;;;10452222;28;85850;-48
2021/12/13 05:12:28;;;;;;;25.40;12.65;;;10.30;99.90;;;;;;10447144;27;84044;-47
2021/12/13 05:17:45;;;;;;;32.28;14.27;;;10.40;99.90;;;;;;10452907;28;85006;-47
2021/12/13 05:22:53;;;;;;;26.00;12.25;;;10.30;99.90;;;;;;10451722;28;84327;-45
2021/12/13 05:28:03;;;;;;;29.60;13.75;;;10.20;99.90;;;;;;10445831;28;84906;-49
2021/12/13 05:33:07;;;;;;;31.95;13.52;;;10.20;99.90;;;;;;10442764;28;87090;-45
2021/12/13 05:38:24;;;;;;;30.17;13.25;;;10.20;99.90;;;;;;10430737;27;85041;-44
2021/12/13 05:43:27;;;;;;;28.38;11.68;;;10.10;99.90;;;;;;10433681;28;85466;-45
2021/12/13 05:48:33;;;;;;;32.45;14.25;;;10.10;99.90;;;;;;10431022;27;84233;-46
2021/12/13 05:53:44;;;;;;;29.23;13.15;;;10.10;99.90;;;;;;10447139;28;85368;-43
2021/12/13 05:58:55;;;;;;;25.95;11.70;;;10.00;99.90;;;;;;10450725;28;84326;-46
2021/12/13 06:04:08;;;;;;;26.73;12.95;;;10.00;99.90;;;;;;10450238;28;84864;-45
2021/12/13 06:09:09;;;;;;;25.23;12.38;;;9.90;99.90;;;;;;10451216;27;84998;-48
2021/12/13 06:14:20;;;;;;;26.10;13.07;;;9.90;99.90;;;;;;10450472;28;84969;-47
2021/12/13 06:19:30;;;;;;;31.25;13.98;;;9.90;99.90;;;;;;10447877;28;86924;-46
2021/12/13 06:24:52;;;;;;;27.90;12.80;;;9.80;99.90;;;;;;10451527;27;84964;-45
2021/12/13 06:30:03;;;;;;;27.27;12.13;;;9.80;99.90;;;;;;10451279;28;83969;-50
2021/12/13 06:35:38;;;;;;;24.48;11.65;;;9.80;99.90;;;;;;10450563;28;85145;-46
2021/12/13 06:40:47;;;;;;;27.52;12.60;;;9.80;99.90;;;;;;10448774;28;85566;-47
2021/12/13 06:45:48;;;;;;;29.65;12.85;;;9.80;99.90;;;;;;10440399;28;85066;-59
2021/12/13 06:50:48;;;;;;;30.48;13.52;;;9.70;99.90;;;;;;10453328;27;84718;-54
2021/12/13 06:55:49;;;;;;;27.98;12.55;;;9.70;99.90;;;;;;10455073;28;84950;-52
2021/12/13 07:00:53;;;;;;;31.00;13.80;;;9.70;99.90;;;;;;10451346;27;84890;-48
2021/12/13 07:05:57;;;;;;;26.48;13.85;;;9.70;99.90;;;;;;10448995;27;84590;-47
2021/12/13 07:11:05;;;;;;;38.95;14.82;;;9.70;99.90;;;;;;10463954;27;84564;-46
2021/12/13 07:16:30;;;;;;;26.15;12.05;;;9.60;99.90;;;;;;10449485;28;84873;-50
2021/12/13 07:21:42;;;;;;;27.08;13.02;;;9.70;99.90;;;;;;10449348;28;84898;-46
2021/12/13 07:27:04;;;;;;;27.55;13.35;;;9.70;99.90;;;;;;10445147;27;84988;-45
2021/12/13 07:32:10;;;;;;;27.38;12.27;;;9.70;99.90;;;;;;10449447;28;84332;-48
2021/12/13 07:37:11;;;;;;;28.55;11.63;;;9.70;99.90;;;;;;10447290;28;84049;-46
2021/12/13 07:42:13;;;;;;;21.90;10.35;;;9.80;99.90;;;;;;10452030;27;84225;-45
2021/12/13 07:47:20;;;;;;;20.75;10.40;;;9.70;99.90;;;;;;10448427;27;84686;-46
2021/12/13 07:52:35;;;;;;;20.08;9.75;;;9.60;99.90;;;;;;10449627;28;84040;-52
2021/12/13 07:57:36;;;;;;;20.23;9.43;;;9.60;99.90;;;;;;10446592;27;84196;-47
2021/12/13 08:02:37;;;;;;;21.00;9.90;;;9.60;99.90;;;;;;10455723;27;84745;-45
2021/12/13 08:07:47;;;;;;;17.73;9.18;;;9.60;99.90;;;;;;10425496;22;86761;-43
2021/12/13 08:12:53;;;;;;;15.93;8.27;;;9.60;99.90;;;;;;10365438;28;84870;-48
2021/12/13 08:17:57;;;;;;;14.70;7.90;;;9.60;99.90;;;;;;10369958;28;84130;-47
2021/12/13 08:22:59;;;;;;;17.90;8.75;;;9.50;99.90;;;;;;10371253;28;85514;-50
2021/12/13 08:28:05;;;;;;;12.93;7.32;;;9.60;99.90;;;;;;10371389;28;84054;-44
2021/12/13 08:33:13;;;;;;;15.73;7.60;;;9.60;99.90;;;;;;10372534;28;84921;-45
2021/12/13 08:38:37;;;;;;;13.05;7.00;;;9.60;99.90;;;;;;10371114;28;84169;-46
2021/12/13 08:43:43;;;;;;;15.13;7.47;;;9.60;99.90;;;;;;10371700;28;84016;-47
2021/12/13 08:48:50;;;;;;;14.73;7.25;;;9.60;99.90;;;;;;10370935;28;85049;-44
2021/12/13 08:54:10;;;;;;;12.40;6.72;;;9.60;99.90;;;;;;10371515;28;84550;-46
2021/12/13 08:59:23;;;;;;;12.32;6.28;;;9.60;99.90;;;;;;10370974;28;85808;-44
2021/12/13 09:04:28;;;;;;;12.00;6.40;;;9.50;99.90;;;;;;10370019;28;85749;-44
2021/12/13 09:09:29;;;;;;;13.32;6.35;;;9.50;99.90;;;;;;10367483;28;87106;-47
2021/12/13 09:14:37;;;;;;;13.30;6.45;;;9.60;99.90;;;;;;10370552;28;84011;-45
2021/12/13 09:19:43;;;;;;;13.40;6.45;;;9.60;99.90;;;;;;10369062;28;87048;-43
2021/12/13 09:24:47;;;;;;;15.48;6.40;;;9.70;99.90;;;;;;10368698;28;86040;-44
2021/12/13 09:29:55;;;;;;;11.43;6.50;;;9.60;99.90;;;;;;10369793;28;84013;-46
2021/12/13 09:35:23;;;;;;;9.02;5.78;;;9.60;99.90;;;;;;10369845;28;84841;-46
2021/12/13 09:40:34;;;;;;;12.20;5.72;;;9.60;99.90;;;;;;10370073;28;84860;-43
2021/12/13 09:45:41;;;;;;;8.93;5.05;;;9.60;99.90;;;;;;10367610;28;84946;-47
2021/12/13 09:50:47;;;;;;;12.90;6.22;;;9.60;99.90;;;;;;10369348;28;84907;-45
2021/12/13 09:55:50;;;;;;;11.43;5.68;;;9.60;99.90;;;;;;10368727;28;85005;-45
2021/12/13 10:00:56;;;;;;;9.35;5.38;;;9.60;99.90;;;;;;10369476;28;84925;-45
2021/12/13 10:06:02;;;;;;;9.70;5.57;;;9.60;99.90;;;;;;10367556;28;84927;-46
2021/12/13 10:11:14;;;;;;;14.75;5.90;;;9.60;99.90;;;;;;10366833;28;84832;-44
2021/12/13 10:16:22;;;;;;;11.65;5.18;;;9.60;99.90;;;;;;10368157;28;84999;-44
2021/12/13 10:21:32;;;;;;;12.40;5.93;;;9.60;99.90;;;;;;10366591;28;86063;-45
2021/12/13 10:26:36;;;;;;;12.30;5.82;;;9.60;99.90;;;;;;10368029;28;84122;-44
2021/12/13 10:31:41;;;;;;;9.13;4.70;;;9.60;99.90;;;;;;10349850;28;85188;-43
2021/12/13 10:36:46;;;;;;;11.48;5.40;;;9.60;99.90;;;;;;10367831;28;85082;-45
2021/12/13 10:41:51;;;;;;;9.07;5.03;;;9.60;99.90;;;;;;10368057;28;84054;-47
2021/12/13 10:46:54;;;;;;;11.07;4.57;;;9.60;99.90;;;;;;10367719;28;85050;-46
2021/12/13 10:52:17;;;;;;;13.90;5.75;;;9.60;99.90;;;;;;10365762;28;85045;-43
2021/12/13 10:57:31;;;;;;;8.35;4.63;;;9.60;99.90;;;;;;10366679;28;84851;-44
2021/12/13 11:02:37;;;;;;;11.98;5.20;;;9.60;99.90;;;;;;10367153;28;85346;-46
2021/12/13 11:07:38;;;;;;;10.63;4.90;;;9.60;99.90;;;;;;10367364;28;85360;-45
2021/12/13 11:12:46;;;;;;;11.38;5.43;;;9.70;99.90;;;;;;10365580;28;86033;-46
2021/12/13 11:17:48;;;;;;;11.13;5.13;;;9.70;99.90;;;;;;10367159;28;85058;-45
2021/12/13 11:22:49;;;;;;;11.32;4.80;;;9.70;99.90;;;;;;10367979;28;83955;-44
2021/12/13 11:27:50;;;;;;;8.18;4.80;;;9.80;99.90;;;;;;10366789;28;84050;-45
2021/12/13 11:32:57;;;;;;;9.00;4.85;;;9.80;99.90;;;;;;10368496;28;84109;-45
2021/12/13 11:38:26;;;;;;;10.23;5.03;;;9.80;99.90;;;;;;10373885;28;84910;-45
2021/12/13 11:43:40;;;;;;;11.70;5.13;;;9.80;99.90;;;;;;10374898;28;84086;-46
2021/12/13 11:48:59;;;;;;;9.82;4.85;;;9.80;99.90;;;;;;10374826;28;84051;-48
2021/12/13 11:54:23;;;;;;;8.70;4.95;;;9.70;99.90;;;;;;10374233;28;85027;-50
2021/12/13 12:00:01;;;;;;;8.20;3.83;;;9.70;99.90;;;;;;10374100;28;84890;-45
2021/12/13 12:05:20;;;;;;;11.68;4.63;;;9.80;99.90;;;;;;10373295;28;85961;-43
2021/12/13 12:10:47;;;;;;;11.05;5.00;;;9.80;99.90;;;;;;10371961;28;85025;-42
2021/12/13 12:15:48;;;;;;;12.23;5.13;;;9.90;99.90;;;;;;10373576;28;84122;-43
2021/12/13 12:21:12;;;;;;;9.70;4.65;;;10.00;99.90;;;;;;10373343;28;84135;-44
2021/12/13 12:26:14;;;;;;;11.52;4.90;;;10.10;99.90;;;;;;10372951;28;84111;-44
2021/12/13 12:31:15;;;;;;;8.95;4.47;;;10.10;99.90;;;;;;10373330;28;84925;-44
2021/12/13 12:36:20;;;;;;;9.85;4.38;;;10.10;99.90;;;;;;10373263;28;84295;-45
2021/12/13 12:41:55;;;;;;;8.13;4.38;;;10.00;99.90;;;;;;10371144;28;87105;-44
2021/12/13 12:46:58;;;;;;;10.25;4.55;;;10.00;99.90;;;;;;10368899;28;85047;-46
2021/12/13 12:52:06;;;;;;;9.68;4.38;;;10.00;99.90;;;;;;10372317;28;84801;-45
2021/12/13 12:57:07;;;;;;;9.82;4.38;;;10.00;99.90;;;;;;10369821;28;86041;-47
2021/12/13 13:02:14;;;;;;;7.63;4.07;;;10.00;99.90;;;;;;10371928;28;85291;-47
2021/12/13 13:07:25;;;;;;;7.03;4.00;;;10.00;99.90;;;;;;10370933;28;84229;-44
2021/12/13 13:12:36;;;;;;;9.27;4.05;;;10.00;99.90;;;;;;10372173;28;85114;-44
2021/12/13 13:17:41;;;;;;;7.43;4.82;;;10.10;99.90;;;;;;10372505;28;84939;-44
2021/12/13 13:22:44;;;;;;;9.77;3.83;;;10.00;99.90;;;;;;10370091;28;84254;-44
2021/12/13 13:27:45;;;;;;;9.27;4.20;;;10.00;99.90;;;;;;10370220;28;84875;-45
2021/12/13 13:32:47;;;;;;;7.85;3.58;;;10.00;99.90;;;;;;10370006;28;84844;-43
2021/12/13 13:37:47;;;;;;;8.27;4.00;;;10.00;99.90;;;;;;10367990;28;84949;-45
2021/12/13 13:42:52;;;;;;;8.10;3.83;;;9.90;99.90;;;;;;10370019;28;84032;-44
2021/12/13 13:48:00;;;;;;;6.70;3.40;;;9.90;99.90;;;;;;10368546;28;84913;-47
2021/12/13 13:53:12;;;;;;;10.25;3.15;;;9.90;99.90;;;;;;10369838;28;84757;-47
2021/12/13 13:58:34;;;;;;;6.63;3.17;;;10.00;99.90;;;;;;10368210;28;84113;-47
2021/12/13 14:03:37;;;;;;;7.50;3.25;;;9.90;99.90;;;;;;10368011;28;84099;-45
2021/12/13 14:08:40;;;;;;;7.78;3.65;;;9.90;99.90;;;;;;10384140;22;85039;-51
2021/12/13 14:13:43;;;;;;;8.85;3.42;;;9.90;99.90;;;;;;10369077;28;84020;-46
2021/12/13 14:18:44;;;;;;;8.40;4.03;;;9.90;99.90;;;;;;10368095;28;86009;-46
2021/12/13 14:23:48;;;;;;;8.55;3.85;;;9.90;99.90;;;;;;10370047;28;84145;-49
2021/12/13 14:28:57;;;;;;;8.77;3.55;;;9.90;99.90;;;;;;10368486;28;84042;-52
2021/12/13 14:34:07;;;;;;;3.88;2.72;;;9.90;99.90;;;;;;10370248;28;84024;-47
2021/12/13 14:39:14;;;;;;;5.55;3.08;;;9.90;99.90;;;;;;10368388;28;86021;-46
2021/12/13 14:44:17;;;;;;;9.45;4.40;;;9.90;99.90;;;;;;10368518;28;87108;-46
2021/12/13 14:49:21;;;;;;;6.88;3.55;;;9.90;99.90;;;;;;10368855;28;85037;-48
2021/12/13 14:54:26;;;;;;;7.80;3.20;;;10.00;99.90;;;;;;10369142;28;84115;-46
2021/12/13 14:59:34;;;;;;;8.43;2.75;;;9.90;99.90;;;;;;10368254;28;84942;-46
2021/12/13 15:04:34;;;;;;;5.88;2.80;;;10.00;99.90;;;;;;10368569;28;84236;-47
2021/12/13 15:09:38;;;;;;;4.80;2.60;;;10.00;99.90;;;;;;10366426;28;84821;-51
2021/12/13 15:14:45;;;;;;;6.30;2.85;;;10.00;99.90;;;;;;10367988;28;84932;-46
2021/12/13 15:20:14;;;;;;;6.43;3.25;;;10.00;99.90;;;;;;10366374;28;84869;-48
2021/12/13 15:25:21;;;;;;;5.43;2.75;;;10.00;99.90;;;;;;10349120;28;86692;-47
2021/12/13 15:30:25;;;;;;;4.50;2.53;;;10.00;99.90;;;;;;10367954;28;84955;-46
2021/12/13 15:35:30;;;;;;;4.10;3.03;;;9.90;99.90;;;;;;10366791;28;85129;-49
2021/12/13 15:40:59;;;;;;;4.03;2.17;;;9.90;99.90;;;;;;10367559;28;84847;-51
2021/12/13 15:46:19;;;;;;;8.50;2.75;;;9.90;99.90;;;;;;10362617;28;86256;-48
2021/12/13 15:51:25;;;;;;;4.65;2.78;;;9.90;99.90;;;;;;10368227;28;83990;-46
2021/12/13 15:56:30;;;;;;;6.05;2.92;;;10.00;99.90;;;;;;10365927;28;84127;-44
2021/12/13 16:01:34;;;;;;;11.52;3.08;;;10.00;99.90;;;;;;10365708;28;86449;-49
2021/12/13 16:06:42;;;;;;;5.55;3.17;;;10.00;99.90;;;;;;10366074;28;84172;-44
2021/12/13 16:11:50;;;;;;;5.65;2.75;;;10.00;99.90;;;;;;10367220;28;84869;-46
2021/12/13 16:17:05;;;;;;;5.55;2.60;;;9.90;99.90;;;;;;10364937;28;84896;-51
2021/12/13 16:22:29;;;;;;;5.97;2.90;;;9.80;99.90;;;;;;10372401;28;84081;-47
2021/12/13 16:27:46;;;;;;;5.50;2.92;;;9.80;99.90;;;;;;10356989;28;86948;-48
2021/12/13 16:32:47;;;;;;;11.02;3.00;;;9.80;99.90;;;;;;10366381;28;84981;-49
2021/12/13 16:37:51;;;;;;;6.68;3.30;;;9.80;99.90;;;;;;10371212;28;84067;-53
2021/12/13 16:43:02;;;;;;;8.20;3.50;;;9.90;99.90;;;;;;10362908;28;84993;-47
2021/12/13 16:48:04;;;;;;;5.82;3.28;;;9.90;99.90;;;;;;10362623;28;84438;-49
2021/12/13 16:53:06;;;;;;;4.80;2.78;;;9.90;99.90;;;;;;10372960;28;84896;-52
2021/12/13 16:58:06;;;;;;;7.63;3.67;;;9.90;99.90;;;;;;10357474;28;84869;-48
2021/12/13 17:03:11;;;;;;;6.43;3.22;;;9.80;99.90;;;;;;10386971;28;84974;-61
2021/12/13 17:08:18;;;;;;;7.30;3.05;;;9.80;99.90;;;;;;10413287;28;83980;-59
2021/12/13 17:13:43;;;;;;;5.60;3.47;;;9.80;99.90;;;;;;10413686;28;84902;-49
2021/12/13 17:19:03;;;;;;;5.60;3.17;;;9.90;99.90;;;;;;10370874;28;85084;-50
2021/12/13 17:24:17;;;;;;;7.68;3.33;;;9.90;99.90;;;;;;10352018;28;84907;-58
2021/12/13 17:29:32;;;;;;;5.72;3.30;;;9.90;99.90;;;;;;10358554;28;84857;-61
2021/12/13 17:34:43;;;;;;;8.80;3.47;;;9.90;99.90;;;;;;10363714;28;85483;-49
2021/12/13 17:39:46;;;;;;;4.78;2.25;;;9.90;99.90;;;;;;10366552;28;84312;-52
2021/12/13 17:45:12;;;;;;;6.05;3.03;;;9.80;99.90;;;;;;10361994;28;84259;-51
2021/12/13 17:50:23;;;;;;;4.55;2.70;;;9.80;99.90;;;;;;10363728;28;85092;-49
2021/12/13 17:55:31;;;;;;;5.18;2.40;;;9.90;99.90;;;;;;10345849;28;86874;-52
2021/12/13 18:00:42;;;;;;;4.47;2.33;;;9.80;99.90;;;;;;10355781;28;84488;-53
2021/12/13 18:05:43;;;;;;;5.70;2.92;;;9.70;99.90;;;;;;10365541;28;84943;-55
2021/12/13 18:10:46;;;;;;;5.18;2.67;;;9.80;99.90;;;;;;10370932;28;84270;-54
2021/12/13 18:15:51;;;;;;;4.78;2.45;;;9.80;99.90;;;;;;10382267;28;84892;-53
2021/12/13 18:21:09;;;;;;;6.22;2.78;;;9.80;99.90;;;;;;10360289;28;85008;-53
2021/12/13 18:26:28;;;;;;;6.35;2.85;;;9.80;99.90;;;;;;10365943;28;84950;-53
2021/12/13 18:31:36;;;;;;;6.85;3.10;;;9.80;99.90;;;;;;10367503;28;84257;-55
2021/12/13 18:36:45;;;;;;;4.95;2.28;;;9.80;99.90;;;;;;10368725;28;84928;-51
2021/12/13 18:41:45;;;;;;;7.07;3.28;;;9.70;99.90;;;;;;10368247;28;84489;-55
2021/12/13 18:46:56;;;;;;;3.83;2.60;;;9.70;99.90;;;;;;10366872;28;84933;-57
2021/12/13 18:51:56;;;;;;;5.28;2.33;;;9.70;99.90;;;;;;10373780;28;84183;-52
2021/12/13 18:57:13;;;;;;;3.50;2.13;;;9.70;99.90;;;;;;10401759;28;84142;-53
2021/12/13 19:02:14;;;;;;;5.15;2.60;;;9.70;99.90;;;;;;10390729;28;84666;-54
2021/12/13 19:07:28;;;;;;;4.75;2.50;;;9.60;99.90;;;;;;10358938;28;84564;-53
2021/12/13 19:12:43;;;;;;;6.07;2.53;;;9.60;99.90;;;;;;10365941;28;85060;-54
2021/12/13 19:18:00;;;;;;;4.90;2.55;;;9.60;99.90;;;;;;10361015;28;84452;-54
2021/12/13 19:23:27;;;;;;;5.85;2.65;;;9.60;99.90;;;;;;10365962;28;85113;-56
2021/12/13 19:28:30;;;;;;;4.55;2.67;;;9.60;99.90;;;;;;10357117;28;84306;-58
2021/12/13 19:33:46;;;;;;;4.45;2.38;;;9.60;99.90;;;;;;10361010;28;84279;-56
2021/12/13 19:39:20;;;;;;;4.35;2.40;;;9.50;99.90;;;;;;10359137;28;84718;-54
2021/12/13 19:44:32;;;;;;;4.53;2.35;;;9.50;99.90;;;;;;10333841;28;85238;-56
2021/12/13 19:49:50;;;;;;;4.00;2.42;;;9.50;99.90;;;;;;10370245;28;84852;-53
2021/12/13 19:55:00;;;;;;;4.43;1.95;;;9.50;99.90;;;;;;10364928;28;85097;-53
2021/12/13 20:00:18;;;;;;;4.45;2.20;;;9.50;99.90;;;;;;10379131;28;84290;-53
2021/12/13 20:05:34;;;;;;;3.35;1.92;;;9.50;99.90;;;;;;10357574;28;86987;-53
2021/12/13 20:10:53;;;;;;;4.43;1.80;;;9.40;99.90;;;;;;10393863;22;85434;-47
2021/12/13 20:15:58;;;;;;;5.22;2.30;;;9.40;99.90;;;;;;10368573;28;84793;-45
2021/12/13 20:21:06;;;;;;;4.38;2.40;;;9.40;99.90;;;;;;10312600;28;84919;-46
2021/12/13 20:26:15;;;;;;;4.90;2.00;;;9.40;99.90;;;;;;10319683;28;84806;-47
2021/12/13 20:31:46;;;;;;;3.00;1.63;;;9.40;99.90;;;;;;10330135;28;84119;-45
2021/12/13 20:37:13;;;;;;;4.13;2.10;;;9.40;99.90;;;;;;10316268;28;84805;-46
2021/12/13 20:42:43;;;;;;;3.30;1.45;;;9.40;99.90;;;;;;10293165;28;84879;-45
2021/12/13 20:47:49;;;;;;;3.25;2.20;;;9.40;99.90;;;;;;10289471;28;84226;-44
2021/12/13 20:52:53;;;;;;;3.63;1.98;;;9.40;99.90;;;;;;10289574;28;84233;-46
2021/12/13 20:58:17;;;;;;;2.40;1.45;;;9.30;99.90;;;;;;10298138;28;84041;-44
2021/12/13 21:03:37;;;;;;;3.83;1.80;;;9.30;99.90;;;;;;10325737;28;84232;-46
2021/12/13 21:08:41;;;;;;;3.70;1.95;;;9.30;99.90;;;;;;10325801;28;84029;-44
2021/12/13 21:13:47;;;;;;;3.88;1.98;;;9.30;99.90;;;;;;10325315;28;85422;-45
2021/12/13 21:18:56;;;;;;;3.42;2.10;;;9.30;99.90;;;;;;10317906;28;85127;-45
2021/12/13 21:24:07;;;;;;;3.10;2.20;;;9.30;99.90;;;;;;10313838;28;84923;-47
2021/12/13 21:29:13;;;;;;;2.85;1.65;;;9.30;99.90;;;;;;10308459;28;84200;-45
2021/12/13 21:34:34;;;;;;;3.75;2.15;;;9.20;99.90;;;;;;10295156;28;84304;-46
2021/12/13 21:39:35;;;;;;;3.65;1.83;;;9.20;99.90;;;;;;10313953;28;85261;-48
2021/12/13 21:44:41;;;;;;;3.70;1.83;;;9.10;99.90;;;;;;10320298;28;84738;-49
2021/12/13 21:49:58;;;;;;;6.13;1.80;;;9.10;99.90;;;;;;10303451;28;84483;-48
2021/12/13 21:55:34;;;;;;;3.65;1.85;;;9.10;99.90;;;;;;10306789;28;85079;-45
2021/12/13 22:00:46;;;;;;;7.35;2.00;;;9.10;99.90;;;;;;10304588;28;84305;-46
2021/12/13 22:05:51;;;;;;;2.75;1.70;;;9.00;99.90;;;;;;10322203;28;84239;-45
2021/12/13 22:11:01;;;;;;;4.18;2.15;;;9.10;99.90;;;;;;10321363;28;84961;-47
2021/12/13 22:16:08;;;;;;;5.88;1.80;;;9.00;99.90;;;;;;10286311;28;85083;-47
2021/12/13 22:21:16;;;;;;;3.78;2.00;;;9.00;99.90;;;;;;10286578;28;84361;-46
2021/12/13 22:26:17;;;;;;;4.13;1.48;;;9.00;99.90;;;;;;10286394;28;84950;-43
2021/12/13 22:31:27;;;;;;;2.85;1.90;;;9.00;99.90;;;;;;10286464;28;84128;-45
2021/12/13 22:36:33;;;;;;;6.60;1.90;;;9.00;99.90;;;;;;10319022;28;84220;-45
2021/12/13 22:41:39;;;;;;;3.80;1.70;;;9.00;99.90;;;;;;10308891;28;86123;-48
2021/12/13 22:46:55;;;;;;;3.80;1.92;;;9.00;99.90;;;;;;10321111;28;84204;-47
2021/12/13 22:52:00;;;;;;;5.72;1.98;;;9.00;99.90;;;;;;10286756;28;84880;-45
2021/12/13 22:57:01;;;;;;;4.72;1.83;;;9.00;99.90;;;;;;10284876;28;85009;-48
2021/12/13 23:02:19;;;;;;;3.70;2.35;;;9.00;99.90;;;;;;10285364;28;84972;-47
2021/12/13 23:07:23;;;;;;;3.78;2.20;;;9.10;99.90;;;;;;10283424;28;84941;-50
2021/12/13 23:17:51;;;;;;;4.00;2.30;;;9.10;99.90;;;;;;10284998;28;84329;-49
2021/12/13 23:22:53;;;;;;;6.72;2.42;;;9.10;99.90;;;;;;10284861;28;86759;-50
2021/12/13 23:27:55;;;;;;;5.95;2.67;;;9.00;99.90;;;;;;10284748;28;84032;-46
2021/12/13 23:32:58;;;;;;;4.55;2.38;;;9.00;99.90;;;;;;10291224;28;84104;-46
2021/12/13 23:38:01;;;;;;;5.88;2.60;;;9.10;99.90;;;;;;10316620;28;84670;-47
2021/12/13 23:48:34;;;;;;;5.55;2.50;;;9.00;99.90;;;;;;10306920;28;84894;-43
2021/12/13 23:53:36;;;;;;;5.45;2.97;;;8.90;99.90;;;;;;10302022;28;84127;-45
2021/12/13 23:58:44;;;;;;;6.43;2.70;;;8.90;99.90;;;;;;10291445;28;84962;-47
